CYKL

Schefferville Airport

Schefferville, Quebec, Canada
METAR CYKL 170821Z AUTO 13004KT 1 3/4SM -SN OVC041 M15/M16 A2952 RMK SLP043
Observed Flight Rules
Nov-17 @ 08:21 UTC (36 minutes ago) Instrument Flight Rules
Wind Visibility Clouds Conditions
130° at 4 knots 1 3/4 miles
  • Overcast at 4,100' AGL
  • Light Snow
Temperatures Readings
Current -15°C / 5°F
Dewpoint -16°C / 3°F
Humidity 92%
Altimeter 29.52" Hg
Pressure 1004.3 hPa
Elevation 521
METAR CYKL 170821Z AUTO 13004KT 1 3/4SM -SN OVC041 M15/M16 A2952 RMK SLP043
Observed Flight Rules
Nov-17 @ 08:21 UTC
(36 minutes ago)
IFR
Wind Visibility
130° at 4 knots 1 3/4 miles
Clouds
  • Overcast at 4,100' AGL
Conditions
  • Light Snow
Temperature Dewpoint
-15°C / 5°F -16°C / 3°F
Humidity Altimeter Pressure
92% 29.52" Hg 1004.3 hPa